Time;durP1;ratioP1;P1;durP2;ratioP2;P2;SDS_P1;SDS_P2;PMS_P1;PMS_P2;Temp;Humidity;BMP_temperature;BMP_pressure;BME280_temperature;BME280_humidity;BME280_pressure;Samples;Min_cycle;Max_cycle;Signal;HPM_P1;HPM_P2
2021/01/29 00:02:16;;;;;;;9.38;3.95;;;1.00;99.90;;;;;;5027092;28;20026;-45
2021/01/29 00:04:44;;;;;;;6.90;3.45;;;1.00;99.90;;;;;;5026762;28;20033;-44
2021/01/29 00:07:10;;;;;;;6.57;3.85;;;1.00;99.90;;;;;;5027578;28;20025;-46
2021/01/29 00:09:35;;;;;;;10.60;3.53;;;1.00;99.90;;;;;;5027497;28;20165;-46
2021/01/29 00:12:01;;;;;;;3.95;2.90;;;1.00;99.90;;;;;;5027279;28;20033;-44
2021/01/29 00:14:27;;;;;;;8.10;3.78;;;1.00;99.90;;;;;;5027206;28;20128;-45
2021/01/29 00:16:52;;;;;;;8.13;3.58;;;1.00;99.90;;;;;;5027021;28;20387;-45
2021/01/29 00:19:18;;;;;;;5.22;3.22;;;1.00;99.90;;;;;;5027432;28;20029;-44
2021/01/29 00:21:43;;;;;;;10.18;3.33;;;1.00;99.90;;;;;;5027124;28;20083;-44
2021/01/29 00:24:09;;;;;;;7.15;3.20;;;1.00;99.90;;;;;;5009599;28;20037;-45
2021/01/29 00:26:35;;;;;;;8.02;3.40;;;1.00;99.90;;;;;;5026503;28;20022;-43
2021/01/29 00:29:00;;;;;;;13.57;4.18;;;1.00;99.90;;;;;;5027273;28;20064;-45
2021/01/29 00:31:26;;;;;;;5.85;3.88;;;1.00;99.90;;;;;;5009464;28;20053;-45
2021/01/29 00:33:51;;;;;;;7.00;3.63;;;1.00;99.90;;;;;;5030506;28;20060;-45
2021/01/29 00:36:17;;;;;;;6.63;3.83;;;1.00;99.90;;;;;;5029270;28;20026;-45
2021/01/29 00:38:42;;;;;;;6.00;3.90;;;1.00;99.90;;;;;;5030865;28;20033;-44
2021/01/29 00:41:08;;;;;;;8.70;3.72;;;1.00;99.90;;;;;;5030685;28;20041;-45
2021/01/29 00:43:34;;;;;;;8.27;4.15;;;1.00;99.90;;;;;;5030785;28;20467;-45
2021/01/29 00:46:00;;;;;;;7.43;3.30;;;1.00;99.90;;;;;;5029944;28;20044;-47
2021/01/29 00:48:25;;;;;;;8.02;4.32;;;1.00;99.90;;;;;;5030849;28;20017;-45
2021/01/29 00:50:51;;;;;;;7.45;4.82;;;1.00;99.90;;;;;;5030290;28;20030;-45
2021/01/29 00:53:17;;;;;;;9.43;3.83;;;1.00;99.90;;;;;;5030647;28;20083;-45
2021/01/29 00:55:42;;;;;;;10.13;3.38;;;1.00;99.90;;;;;;5011588;28;20033;-43
2021/01/29 00:58:08;;;;;;;12.32;4.95;;;1.00;99.90;;;;;;5030399;28;20368;-46
2021/01/29 01:00:33;;;;;;;8.57;4.28;;;0.90;99.90;;;;;;5030626;28;20025;-44
2021/01/29 01:02:59;;;;;;;7.53;4.00;;;1.00;99.90;;;;;;5030901;28;20512;-44
2021/01/29 01:05:27;;;;;;;8.35;3.83;;;1.00;99.90;;;;;;5029312;28;20356;-44
2021/01/29 01:07:54;;;;;;;8.10;3.92;;;1.00;99.90;;;;;;5029934;28;20019;-45
2021/01/29 01:10:20;;;;;;;6.45;3.58;;;1.00;99.90;;;;;;5030465;28;20029;-44
2021/01/29 01:12:46;;;;;;;6.55;3.88;;;1.00;99.90;;;;;;5029969;28;20030;-44
2021/01/29 01:15:23;;;;;;;6.93;3.90;;;1.00;99.90;;;;;;5029362;28;20042;-45
2021/01/29 01:17:50;;;;;;;5.57;3.20;;;1.00;99.90;;;;;;5030217;28;20100;-45
2021/01/29 01:20:19;;;;;;;4.57;3.22;;;1.00;99.90;;;;;;5030173;28;20025;-44
2021/01/29 01:22:45;;;;;;;5.90;3.05;;;1.00;99.90;;;;;;5012504;28;20030;-44
2021/01/29 01:25:11;;;;;;;5.95;3.00;;;1.00;99.90;;;;;;5029595;28;20390;-44
2021/01/29 01:27:37;;;;;;;5.93;3.45;;;0.90;99.90;;;;;;5030276;28;20014;-43
2021/01/29 01:30:10;;;;;;;11.38;3.10;;;0.90;99.90;;;;;;5029973;28;20029;-44
2021/01/29 01:32:35;;;;;;;11.98;2.90;;;0.90;99.90;;;;;;5030074;28;20109;-46
2021/01/29 01:35:01;;;;;;;6.80;3.30;;;0.90;99.90;;;;;;5029279;28;20455;-44
2021/01/29 01:37:26;;;;;;;7.70;3.10;;;0.90;99.90;;;;;;5029628;28;20131;-45
2021/01/29 01:39:52;;;;;;;5.25;2.53;;;0.80;99.90;;;;;;5028960;28;20026;-44
2021/01/29 01:42:17;;;;;;;4.28;2.53;;;0.80;99.90;;;;;;5029460;28;20030;-43
2021/01/29 01:44:44;;;;;;;4.85;2.63;;;0.80;99.90;;;;;;5027240;28;20025;-44
2021/01/29 01:47:31;;;;;;;5.97;2.50;;;0.80;99.90;;;;;;5028422;28;20025;-44
2021/01/29 01:50:03;;;;;;;5.55;2.38;;;0.80;99.90;;;;;;5029148;28;20471;-44
2021/01/29 01:52:36;;;;;;;6.13;2.30;;;0.80;99.90;;;;;;5028058;28;20021;-43
2021/01/29 01:55:09;;;;;;;5.25;2.65;;;0.80;99.90;;;;;;5028882;28;20022;-44
2021/01/29 01:57:37;;;;;;;5.20;2.38;;;0.90;99.90;;;;;;5028925;28;20112;-44
2021/01/29 02:00:11;;;;;;;4.40;2.17;;;0.90;99.90;;;;;;5028949;28;20598;-46
2021/01/29 02:02:39;;;;;;;9.45;6.05;;;0.90;99.90;;;;;;5029227;28;20083;-46
2021/01/29 02:05:27;;;;;;;4.10;2.50;;;0.80;99.90;;;;;;5028390;28;20026;-45
2021/01/29 02:08:02;;;;;;;5.63;2.45;;;0.80;99.90;;;;;;5028965;28;20029;-46
2021/01/29 02:10:29;;;;;;;9.20;2.72;;;0.80;99.90;;;;;;5029176;28;20387;-44
2021/01/29 02:12:55;;;;;;;7.20;2.30;;;0.80;99.90;;;;;;5028992;28;20033;-45
2021/01/29 02:15:25;;;;;;;7.53;2.70;;;0.80;99.90;;;;;;5028167;28;20029;-44
2021/01/29 02:18:02;;;;;;;4.82;2.25;;;0.80;99.90;;;;;;5029112;28;20410;-43
2021/01/29 02:21:05;;;;;;;5.57;2.97;;;0.80;99.90;;;;;;5028532;28;20025;-44
2021/01/29 02:23:55;;;;;;;5.43;2.55;;;0.70;99.90;;;;;;5011312;28;20079;-45
2021/01/29 02:26:48;;;;;;;10.77;2.75;;;0.80;99.90;;;;;;5026956;28;20029;-45
2021/01/29 02:30:04;;;;;;;7.60;3.10;;;0.70;99.90;;;;;;5029195;28;20021;-44
2021/01/29 02:33:02;;;;;;;8.65;3.00;;;0.70;99.90;;;;;;5011362;28;20052;-44
2021/01/29 02:36:05;;;;;;;4.47;2.42;;;0.70;99.90;;;;;;5028342;28;20017;-43
2021/01/29 02:38:38;;;;;;;5.43;2.85;;;0.80;99.90;;;;;;5028855;28;20312;-43
2021/01/29 02:41:18;;;;;;;4.03;2.90;;;0.80;99.90;;;;;;5028338;28;20030;-44
2021/01/29 02:44:05;;;;;;;4.10;2.03;;;0.80;99.90;;;;;;5028207;28;20576;-45
2021/01/29 02:46:37;;;;;;;7.85;2.60;;;0.80;99.90;;;;;;5028015;28;20052;-44
2021/01/29 02:49:23;;;;;;;7.90;2.72;;;0.80;99.90;;;;;;5028977;28;20025;-44
2021/01/29 02:52:12;;;;;;;9.70;2.63;;;0.80;99.90;;;;;;5028594;28;20034;-44
2021/01/29 02:55:03;;;;;;;10.63;3.10;;;0.80;99.90;;;;;;5027247;28;20108;-45
2021/01/29 02:57:45;;;;;;;5.13;2.25;;;0.80;99.90;;;;;;5028388;28;20026;-45
2021/01/29 03:00:37;;;;;;;7.05;2.45;;;0.80;99.90;;;;;;5011035;28;20080;-46
2021/01/29 03:03:12;;;;;;;8.82;3.22;;;0.80;99.90;;;;;;5028007;28;20037;-46
2021/01/29 03:06:01;;;;;;;5.45;2.60;;;0.70;99.90;;;;;;5027342;28;20029;-44
2021/01/29 03:08:44;;;;;;;6.25;2.58;;;0.80;99.90;;;;;;5028634;28;20433;-43
2021/01/29 03:11:16;;;;;;;9.30;2.85;;;0.70;99.90;;;;;;5028342;28;20390;-45
2021/01/29 03:13:56;;;;;;;5.95;2.53;;;0.80;99.90;;;;;;5027469;28;20030;-45
2021/01/29 03:16:27;;;;;;;4.05;2.55;;;0.70;99.90;;;;;;5027530;28;20026;-44
2021/01/29 03:18:59;;;;;;;7.55;2.47;;;0.70;99.90;;;;;;5027461;28;20041;-44
2021/01/29 03:21:40;;;;;;;11.20;3.20;;;0.70;99.90;;;;;;5027595;28;20028;-44
2021/01/29 03:24:17;;;;;;;7.53;2.55;;;0.70;99.90;;;;;;5028122;28;20449;-44
2021/01/29 03:26:50;;;;;;;5.18;2.55;;;0.80;99.90;;;;;;5027378;28;20087;-44
2021/01/29 03:29:21;;;;;;;7.35;2.60;;;0.80;99.90;;;;;;5027869;28;20026;-44
2021/01/29 03:31:50;;;;;;;5.18;2.70;;;0.80;99.90;;;;;;5027440;28;20021;-44
2021/01/29 03:34:33;;;;;;;5.47;2.58;;;0.80;99.90;;;;;;5027421;28;20036;-44
2021/01/29 03:37:09;;;;;;;3.00;2.40;;;0.80;99.90;;;;;;5027354;28;20116;-44
2021/01/29 03:39:39;;;;;;;6.30;2.97;;;0.80;99.90;;;;;;5026962;28;20470;-44
2021/01/29 03:42:23;;;;;;;5.75;3.10;;;0.80;99.90;;;;;;5027178;28;20025;-44
2021/01/29 03:44:54;;;;;;;7.07;3.28;;;0.80;99.90;;;;;;5026487;28;20087;-43
2021/01/29 03:47:34;;;;;;;6.72;2.88;;;0.80;99.90;;;;;;5026181;28;20495;-44
2021/01/29 03:50:21;;;;;;;7.05;3.22;;;0.80;99.90;;;;;;5018125;28;20036;-44
2021/01/29 03:53:05;;;;;;;5.70;3.40;;;0.80;99.90;;;;;;5018623;28;20088;-43
2021/01/29 03:55:46;;;;;;;7.05;3.38;;;0.80;99.90;;;;;;5016154;28;20065;-43
2021/01/29 03:58:44;;;;;;;4.78;3.13;;;0.80;99.90;;;;;;5017914;28;20029;-44
2021/01/29 04:01:25;;;;;;;10.20;2.92;;;0.80;99.90;;;;;;5018482;28;20104;-44
2021/01/29 04:04:19;;;;;;;6.28;3.20;;;0.80;99.90;;;;;;5016081;28;20046;-45
2021/01/29 04:07:14;;;;;;;8.80;2.88;;;0.80;99.90;;;;;;5020565;28;20025;-43
2021/01/29 04:09:49;;;;;;;5.68;3.28;;;0.80;99.90;;;;;;5006840;28;20021;-45
2021/01/29 04:12:21;;;;;;;8.13;3.97;;;0.80;99.90;;;;;;5025601;28;20030;-43
2021/01/29 04:14:58;;;;;;;6.22;3.45;;;0.70;99.90;;;;;;5021943;28;20112;-43
2021/01/29 04:17:35;;;;;;;7.05;2.90;;;0.80;99.90;;;;;;5023625;28;20025;-43
2021/01/29 04:20:12;;;;;;;7.68;3.33;;;0.70;99.90;;;;;;5028249;28;20057;-44
2021/01/29 04:22:40;;;;;;;11.35;4.45;;;0.70;99.90;;;;;;5023886;28;20482;-43
2021/01/29 04:25:20;;;;;;;7.75;3.13;;;0.70;99.90;;;;;;5021336;28;20087;-43
2021/01/29 04:27:50;;;;;;;7.60;3.78;;;0.70;99.90;;;;;;5031673;28;20018;-42
2021/01/29 04:30:22;;;;;;;9.55;3.65;;;0.70;99.90;;;;;;5022364;28;20018;-43
2021/01/29 04:32:55;;;;;;;10.30;3.60;;;0.60;99.90;;;;;;5022670;28;20013;-43
2021/01/29 04:35:22;;;;;;;8.95;3.38;;;0.70;99.90;;;;;;5022152;28;20030;-44
2021/01/29 04:38:08;;;;;;;9.35;3.85;;;0.70;99.90;;;;;;5022682;28;20025;-44
2021/01/29 04:40:42;;;;;;;10.85;5.35;;;0.70;99.90;;;;;;5024105;28;20044;-43
2021/01/29 04:43:41;;;;;;;6.70;3.92;;;0.70;99.90;;;;;;5006230;28;20049;-43
2021/01/29 04:46:22;;;;;;;7.75;4.85;;;0.70;99.90;;;;;;5023268;28;20123;-44
2021/01/29 04:48:58;;;;;;;6.95;4.43;;;0.70;99.90;;;;;;5031733;28;20033;-42
2021/01/29 04:52:00;;;;;;;10.35;4.43;;;0.70;99.90;;;;;;5023285;28;20037;-44
2021/01/29 04:54:51;;;;;;;7.53;4.63;;;0.70;99.90;;;;;;5023426;28;20460;-49
2021/01/29 04:57:41;;;;;;;10.40;4.57;;;0.70;99.90;;;;;;5029237;28;20329;-43
2021/01/29 05:00:29;;;;;;;11.85;5.68;;;0.70;99.90;;;;;;5033324;28;20312;-44
2021/01/29 05:03:32;;;;;;;8.18;4.30;;;0.70;99.90;;;;;;5032618;28;20021;-44
2021/01/29 05:06:16;;;;;;;6.65;4.15;;;0.70;99.90;;;;;;5021087;28;20383;-44
2021/01/29 05:09:11;;;;;;;8.45;4.30;;;0.70;99.90;;;;;;5031276;28;20022;-44
2021/01/29 05:11:45;;;;;;;9.13;4.28;;;0.70;99.90;;;;;;5032219;28;20041;-44
2021/01/29 05:14:14;;;;;;;12.63;4.72;;;0.70;99.90;;;;;;5032784;28;20041;-44
2021/01/29 05:16:58;;;;;;;8.23;4.95;;;0.80;99.90;;;;;;5032006;28;20034;-46
2021/01/29 05:20:02;;;;;;;8.93;4.68;;;0.80;99.90;;;;;;5029316;28;20034;-46
2021/01/29 05:22:51;;;;;;;6.90;4.35;;;0.80;99.90;;;;;;5006685;28;20034;-44
2021/01/29 05:25:49;;;;;;;8.02;4.43;;;0.80;99.90;;;;;;5029370;28;20017;-44
2021/01/29 05:28:33;;;;;;;5.78;4.50;;;0.80;99.90;;;;;;5010203;28;20446;-45
2021/01/29 05:31:09;;;;;;;7.50;4.35;;;0.80;99.90;;;;;;5009705;28;20032;-44
2021/01/29 05:33:43;;;;;;;9.43;5.05;;;0.80;99.90;;;;;;5010026;28;20213;-44
2021/01/29 05:36:32;;;;;;;11.82;4.53;;;0.80;99.90;;;;;;5018016;28;20022;-44
2021/01/29 05:39:17;;;;;;;11.27;4.97;;;0.80;99.90;;;;;;5030166;28;20145;-45
2021/01/29 05:42:01;;;;;;;9.65;5.05;;;0.80;99.90;;;;;;5029698;28;20621;-44
2021/01/29 05:44:41;;;;;;;10.05;4.80;;;0.80;99.90;;;;;;5029157;28;20037;-43
2021/01/29 05:47:28;;;;;;;11.00;4.63;;;0.80;99.90;;;;;;5026785;28;20022;-45
2021/01/29 05:50:15;;;;;;;6.70;4.25;;;0.80;99.90;;;;;;5023281;28;20483;-44
2021/01/29 05:52:52;;;;;;;7.65;4.70;;;0.80;99.90;;;;;;5023288;28;20426;-45
2021/01/29 05:55:22;;;;;;;8.25;4.35;;;0.80;99.90;;;;;;5029337;28;20026;-44
2021/01/29 05:58:25;;;;;;;8.43;4.07;;;0.80;99.90;;;;;;5028226;28;20025;-43
2021/01/29 06:01:00;;;;;;;6.68;4.63;;;0.80;99.90;;;;;;5029242;28;20120;-44
2021/01/29 06:04:03;;;;;;;10.77;5.15;;;0.80;99.90;;;;;;5029501;28;20529;-44
2021/01/29 06:06:39;;;;;;;11.40;6.22;;;0.90;99.90;;;;;;5027271;28;20709;-44
2021/01/29 06:09:23;;;;;;;11.80;5.32;;;0.90;99.90;;;;;;5021985;28;20036;-47
2021/01/29 06:12:23;;;;;;;8.93;4.88;;;0.80;99.90;;;;;;5017480;28;20395;-46
2021/01/29 06:15:28;;;;;;;10.27;5.35;;;0.80;99.90;;;;;;5025298;28;20448;-43
2021/01/29 06:18:19;;;;;;;15.32;5.65;;;0.80;99.90;;;;;;5026735;28;20047;-44
2021/01/29 06:21:24;;;;;;;10.90;5.63;;;0.80;99.90;;;;;;5028881;28;20418;-43
2021/01/29 06:24:13;;;;;;;9.90;5.55;;;0.70;99.90;;;;;;5028582;28;20021;-44
2021/01/29 06:27:26;;;;;;;9.63;4.78;;;0.70;99.90;;;;;;5028304;28;20072;-43
2021/01/29 06:30:24;;;;;;;9.20;5.10;;;0.70;99.90;;;;;;5027342;28;20467;-45
2021/01/29 06:33:04;;;;;;;10.00;6.00;;;0.70;99.90;;;;;;5029036;28;20497;-45
2021/01/29 06:35:44;;;;;;;10.23;5.57;;;0.60;99.90;;;;;;5028138;28;20107;-44
2021/01/29 06:38:49;;;;;;;10.73;5.85;;;0.70;99.90;;;;;;5028610;28;20026;-44
2021/01/29 06:41:36;;;;;;;14.85;6.10;;;0.60;99.90;;;;;;5027528;28;20068;-45
2021/01/29 06:44:39;;;;;;;8.23;5.25;;;0.70;99.90;;;;;;5028456;28;20033;-44
2021/01/29 06:47:33;;;;;;;12.00;6.65;;;0.60;99.90;;;;;;5017347;28;20285;-45
2021/01/29 06:50:23;;;;;;;15.70;6.35;;;0.60;99.90;;;;;;5027963;28;20503;-43
2021/01/29 06:53:03;;;;;;;10.75;5.95;;;0.60;99.90;;;;;;5027906;28;20342;-44
2021/01/29 06:55:54;;;;;;;12.50;6.28;;;0.50;99.90;;;;;;5028395;28;20025;-44
2021/01/29 06:58:28;;;;;;;9.90;6.18;;;0.50;99.90;;;;;;5027265;28;20037;-44
2021/01/29 07:01:30;;;;;;;12.48;6.45;;;0.50;99.90;;;;;;5027976;28;20030;-44
2021/01/29 07:04:26;;;;;;;11.45;7.43;;;0.40;99.90;;;;;;5010094;28;20033;-42
2021/01/29 07:07:14;;;;;;;15.52;8.23;;;0.50;99.90;;;;;;5027876;28;20056;-44
2021/01/29 07:09:53;;;;;;;17.55;8.55;;;0.40;99.90;;;;;;5027967;28;20053;-44
2021/01/29 07:12:32;;;;;;;15.90;8.05;;;0.40;99.90;;;;;;5027943;28;20095;-43
2021/01/29 07:15:13;;;;;;;18.23;7.82;;;0.40;99.90;;;;;;5023772;28;20026;-43
2021/01/29 07:17:44;;;;;;;15.23;8.07;;;0.50;99.90;;;;;;5026490;28;20061;-44
2021/01/29 07:20:28;;;;;;;16.40;8.27;;;0.40;99.90;;;;;;5027411;28;20080;-44
2021/01/29 07:23:05;;;;;;;19.33;8.98;;;0.50;99.90;;;;;;5027860;28;20038;-44
2021/01/29 07:25:51;;;;;;;17.02;8.60;;;0.50;99.90;;;;;;5027228;28;20029;-44
2021/01/29 07:28:35;;;;;;;14.32;8.75;;;0.50;99.90;;;;;;5027628;28;20021;-43
2021/01/29 07:31:06;;;;;;;12.35;7.50;;;0.40;99.90;;;;;;5028125;28;20027;-44
2021/01/29 07:33:47;;;;;;;17.85;8.00;;;0.40;99.90;;;;;;5027094;28;20410;-44
2021/01/29 07:36:55;;;;;;;14.77;8.18;;;0.40;99.90;;;;;;5027133;28;20104;-44
2021/01/29 07:39:48;;;;;;;16.63;8.90;;;0.40;99.90;;;;;;5027243;28;20500;-44
2021/01/29 07:42:37;;;;;;;12.57;7.45;;;0.40;99.90;;;;;;5026440;28;20410;-45
2021/01/29 07:45:27;;;;;;;14.85;7.50;;;0.40;99.90;;;;;;5008971;28;20040;-44
2021/01/29 07:48:27;;;;;;;17.15;8.13;;;0.40;99.90;;;;;;5027435;28;20236;-44
2021/01/29 07:51:00;;;;;;;16.23;7.65;;;0.40;99.90;;;;;;5011748;28;20020;-44
2021/01/29 07:53:43;;;;;;;14.75;7.90;;;0.40;99.90;;;;;;5026711;28;20014;-45
2021/01/29 07:56:46;;;;;;;15.10;8.95;;;0.50;99.90;;;;;;5027415;28;20075;-45
2021/01/29 07:59:43;;;;;;;14.88;7.93;;;0.50;99.90;;;;;;5026629;28;20041;-45
2021/01/29 08:02:23;;;;;;;17.90;8.63;;;0.50;99.90;;;;;;5019271;28;20214;-45
2021/01/29 08:04:56;;;;;;;17.20;7.88;;;0.60;99.90;;;;;;5024719;28;20030;-44
2021/01/29 08:07:50;;;;;;;13.73;7.68;;;0.60;99.90;;;;;;5026394;28;20033;-43
2021/01/29 08:10:31;;;;;;;17.05;7.85;;;0.60;99.90;;;;;;5026065;28;20274;-43
2021/01/29 08:13:26;;;;;;;16.63;8.50;;;0.60;99.90;;;;;;5020313;28;20021;-44
2021/01/29 08:16:30;;;;;;;12.20;7.60;;;0.60;99.90;;;;;;5024416;28;20618;-45
2021/01/29 08:19:27;;;;;;;13.18;7.00;;;0.60;99.90;;;;;;5026654;28;20052;-44
2021/01/29 08:22:12;;;;;;;17.38;7.13;;;0.60;99.90;;;;;;5027397;28;20052;-43
2021/01/29 08:24:43;;;;;;;12.32;6.68;;;0.70;99.90;;;;;;5026753;28;20053;-43
2021/01/29 08:27:27;;;;;;;;;;;0.70;99.90;;;;;;5027512;28;20022;-45
2021/01/29 08:30:23;;;;;;;9.75;5.85;;;0.60;99.90;;;;;;5027597;28;19959;-45
2021/01/29 08:33:23;;;;;;;10.30;6.25;;;0.70;99.90;;;;;;5027679;28;20033;-46
2021/01/29 08:35:54;;;;;;;12.93;5.88;;;0.70;99.90;;;;;;5026818;28;20036;-47
2021/01/29 08:38:55;;;;;;;9.25;5.07;;;0.70;99.90;;;;;;5009066;28;20037;-45
2021/01/29 08:41:54;;;;;;;8.30;5.55;;;0.70;99.90;;;;;;5025712;28;20090;-45
2021/01/29 08:45:08;;;;;;;10.10;5.47;;;0.80;99.90;;;;;;5007104;28;20053;-43
2021/01/29 08:47:58;;;;;;;10.48;5.60;;;0.90;99.90;;;;;;5015340;28;20030;-46
2021/01/29 08:50:44;;;;;;;14.17;6.33;;;1.00;99.90;;;;;;5026972;28;20029;-44
2021/01/29 08:53:41;;;;;;;13.70;6.30;;;1.00;99.90;;;;;;5027378;28;20018;-46
2021/01/29 08:56:25;;;;;;;9.13;5.30;;;1.00;99.90;;;;;;5027869;28;20037;-44
2021/01/29 08:59:10;;;;;;;9.07;5.75;;;1.10;99.90;;;;;;5030405;28;20402;-44
2021/01/29 09:02:12;;;;;;;9.45;5.63;;;1.20;99.90;;;;;;5020488;28;20030;-44
2021/01/29 09:04:56;;;;;;;10.52;5.65;;;1.20;99.90;;;;;;5020402;28;20022;-46
2021/01/29 09:07:24;;;;;;;7.20;4.63;;;1.30;99.90;;;;;;5028794;28;20021;-45
2021/01/29 09:09:52;;;;;;;9.52;4.38;;;1.30;99.90;;;;;;5029041;28;20117;-47
2021/01/29 09:12:28;;;;;;;9.38;4.80;;;1.40;99.90;;;;;;5028132;28;20620;-45
2021/01/29 09:14:59;;;;;;;5.30;3.28;;;1.40;99.90;;;;;;5029438;28;20041;-45
2021/01/29 09:18:05;;;;;;;7.55;3.58;;;1.40;99.90;;;;;;5030323;28;20092;-46
2021/01/29 09:20:42;;;;;;;4.65;3.20;;;1.50;99.90;;;;;;5028897;28;20045;-45
2021/01/29 09:23:20;;;;;;;6.80;3.95;;;1.50;99.90;;;;;;5027991;28;20068;-43
2021/01/29 09:26:03;;;;;;;4.50;2.92;;;1.60;99.90;;;;;;5028452;28;20021;-44
2021/01/29 09:28:34;;;;;;;5.13;3.15;;;1.60;99.90;;;;;;5010389;28;20364;-46
2021/01/29 09:31:05;;;;;;;;;;;1.60;99.90;;;;;;5029277;28;20507;-47
2021/01/29 09:34:03;;;;;;;12.55;6.15;;;1.60;99.90;;;;;;5028936;28;19909;-46
2021/01/29 09:36:46;;;;;;;3.47;2.38;;;1.70;99.90;;;;;;5010032;28;20129;-45
2021/01/29 09:39:30;;;;;;;2.22;1.90;;;1.70;99.90;;;;;;5008761;28;20166;-45
2021/01/29 09:42:09;;;;;;;2.35;2.05;;;1.70;99.90;;;;;;5006737;28;20158;-47
2021/01/29 09:44:55;;;;;;;2.35;1.50;;;1.70;99.90;;;;;;5018385;28;20041;-45
2021/01/29 09:47:23;;;;;;;2.60;1.63;;;1.80;99.90;;;;;;5028869;28;20025;-44
2021/01/29 09:49:50;;;;;;;2.60;1.40;;;1.90;99.90;;;;;;5028705;28;20076;-45
2021/01/29 09:52:37;;;;;;;2.88;1.70;;;1.90;99.90;;;;;;5028891;28;20018;-45
2021/01/29 09:55:26;;;;;;;2.70;1.30;;;1.90;99.90;;;;;;5027816;28;20052;-44
2021/01/29 09:58:15;;;;;;;1.55;1.30;;;1.90;99.90;;;;;;5025172;28;20104;-45
2021/01/29 10:00:43;;;;;;;1.88;1.40;;;2.00;99.90;;;;;;5028576;28;20087;-43
2021/01/29 10:03:39;;;;;;;3.05;1.60;;;1.90;99.90;;;;;;5027540;28;20224;-43
2021/01/29 10:06:05;;;;;;;1.20;1.10;;;1.90;99.90;;;;;;5012742;28;20073;-46
2021/01/29 10:08:48;;;;;;;2.70;1.75;;;1.90;99.90;;;;;;5028117;28;20076;-45
2021/01/29 10:11:22;;;;;;;2.25;1.70;;;1.90;99.90;;;;;;5028386;28;20026;-46
2021/01/29 10:13:48;;;;;;;3.72;1.95;;;1.90;99.90;;;;;;5027499;28;20056;-46
2021/01/29 10:16:25;;;;;;;5.15;2.40;;;1.90;99.90;;;;;;5027569;28;20033;-44
2021/01/29 10:19:29;;;;;;;4.00;2.20;;;1.90;99.90;;;;;;5028148;28;20306;-45
2021/01/29 10:21:58;;;;;;;4.32;2.70;;;1.80;99.90;;;;;;4994211;28;20048;-46
2021/01/29 10:24:58;;;;;;;5.20;2.67;;;1.80;99.90;;;;;;5026938;28;20145;-43
2021/01/29 10:27:52;;;;;;;3.28;2.50;;;1.70;99.90;;;;;;5027458;28;20100;-44
2021/01/29 10:30:37;;;;;;;6.65;3.28;;;1.60;99.90;;;;;;5027826;28;20022;-45
2021/01/29 10:33:17;;;;;;;4.50;3.33;;;1.60;99.90;;;;;;5013937;28;20030;-47
2021/01/29 10:36:06;;;;;;;5.65;3.38;;;1.60;99.90;;;;;;5024312;28;20387;-47
2021/01/29 10:38:50;;;;;;;5.05;3.28;;;1.60;99.90;;;;;;5016085;28;20037;-46
2021/01/29 10:41:39;;;;;;;4.47;3.30;;;1.50;99.90;;;;;;5021728;28;20415;-44
2021/01/29 10:44:28;;;;;;;6.85;4.30;;;1.50;99.90;;;;;;5020770;28;20046;-46
2021/01/29 10:47:21;;;;;;;6.18;3.97;;;1.30;99.90;;;;;;5015532;28;20125;-46
2021/01/29 10:50:11;;;;;;;8.50;4.78;;;1.10;99.90;;;;;;5025595;28;20033;-43
2021/01/29 10:52:41;;;;;;;6.45;4.70;;;1.10;99.90;;;;;;5025270;28;20125;-43
2021/01/29 10:55:22;;;;;;;5.80;4.32;;;1.10;99.90;;;;;;5023737;28;20041;-45
2021/01/29 10:58:23;;;;;;;7.03;4.85;;;1.10;99.90;;;;;;5018346;28;20372;-45
2021/01/29 11:00:59;;;;;;;7.22;4.97;;;1.20;99.90;;;;;;5025394;28;20059;-45
2021/01/29 11:03:48;;;;;;;7.90;4.82;;;1.10;99.90;;;;;;5026458;28;20045;-45
2021/01/29 11:06:19;;;;;;;10.30;5.30;;;1.10;99.90;;;;;;4990469;28;20057;-45
2021/01/29 11:08:55;;;;;;;13.30;5.45;;;1.00;99.90;;;;;;5015448;28;20058;-44
2021/01/29 11:11:37;;;;;;;9.02;5.40;;;1.00;99.90;;;;;;5015186;28;20030;-45
2021/01/29 11:14:23;;;;;;;9.98;5.78;;;1.00;99.90;;;;;;5014884;28;20040;-44
2021/01/29 11:17:06;;;;;;;10.68;5.82;;;1.00;99.90;;;;;;5023886;28;20050;-45
2021/01/29 11:19:40;;;;;;;8.35;5.30;;;1.00;99.90;;;;;;5026852;28;20483;-45
2021/01/29 11:22:15;;;;;;;10.48;6.45;;;1.00;99.90;;;;;;5026275;28;20033;-45
2021/01/29 11:25:06;;;;;;;19.10;6.25;;;1.00;99.90;;;;;;5024994;28;20033;-45
2021/01/29 11:27:56;;;;;;;11.98;7.00;;;1.00;99.90;;;;;;5022474;28;20045;-45
2021/01/29 11:30:31;;;;;;;14.30;6.30;;;1.00;99.90;;;;;;5020671;28;20033;-47
2021/01/29 11:32:59;;;;;;;12.98;5.70;;;1.00;99.90;;;;;;5022076;28;20021;-45
2021/01/29 11:35:50;;;;;;;11.98;6.75;;;1.00;99.90;;;;;;5010069;28;20177;-44
2021/01/29 11:38:52;;;;;;;8.75;6.15;;;1.00;99.90;;;;;;5015606;28;20108;-44
2021/01/29 11:41:48;;;;;;;12.82;7.72;;;1.00;99.90;;;;;;5016092;28;20475;-44
2021/01/29 11:44:55;;;;;;;13.85;7.32;;;0.90;99.90;;;;;;4995594;28;20044;-44
2021/01/29 11:47:40;;;;;;;11.60;7.63;;;0.80;99.90;;;;;;5005268;28;20446;-45
2021/01/29 11:50:31;;;;;;;15.73;8.00;;;0.80;99.90;;;;;;5021060;28;20033;-44
2021/01/29 11:53:10;;;;;;;14.05;8.00;;;0.90;99.90;;;;;;4988680;28;20121;-43
2021/01/29 11:55:46;;;;;;;12.18;8.02;;;0.90;99.90;;;;;;5010491;28;20060;-45
2021/01/29 11:58:13;;;;;;;12.23;7.97;;;0.90;99.90;;;;;;5007477;28;20056;-45
2021/01/29 12:00:58;;;;;;;12.82;7.95;;;0.90;99.90;;;;;;5025684;28;20025;-45
2021/01/29 12:03:42;;;;;;;12.90;8.35;;;0.90;99.90;;;;;;4997143;28;20373;-45
2021/01/29 12:06:16;;;;;;;11.80;7.93;;;0.90;99.90;;;;;;5011419;28;20018;-44
2021/01/29 12:09:01;;;;;;;17.20;8.35;;;1.00;99.90;;;;;;5024198;28;20026;-44
2021/01/29 12:11:49;;;;;;;12.93;9.02;;;1.00;99.90;;;;;;5018242;28;20053;-45
2021/01/29 12:14:29;;;;;;;15.52;8.00;;;0.90;99.90;;;;;;5024955;28;20095;-48
2021/01/29 12:16:58;;;;;;;15.05;8.65;;;0.90;99.90;;;;;;5026746;28;20030;-46
2021/01/29 12:19:42;;;;;;;14.57;8.85;;;0.90;99.90;;;;;;5026596;28;20120;-45
2021/01/29 12:22:31;;;;;;;13.48;7.90;;;0.80;99.90;;;;;;5008419;28;20026;-45
2021/01/29 12:25:26;;;;;;;11.35;7.25;;;0.90;99.90;;;;;;5008691;28;20033;-45
2021/01/29 12:27:59;;;;;;;14.73;7.93;;;0.90;99.90;;;;;;5027878;28;20116;-45
2021/01/29 12:30:38;;;;;;;10.80;7.10;;;0.90;99.90;;;;;;5030588;28;20021;-45
2021/01/29 12:33:11;;;;;;;14.13;7.43;;;0.90;99.90;;;;;;5030673;28;20022;-45
2021/01/29 12:35:42;;;;;;;11.93;6.85;;;0.90;99.90;;;;;;5029804;28;20017;-44
2021/01/29 12:38:26;;;;;;;13.63;7.80;;;0.80;99.90;;;;;;5030251;28;20030;-45
2021/01/29 12:41:20;;;;;;;12.07;7.55;;;0.80;99.90;;;;;;5029637;28;20331;-45
2021/01/29 12:44:21;;;;;;;13.55;7.50;;;0.80;99.90;;;;;;5029277;28;20513;-45
2021/01/29 12:47:01;;;;;;;12.82;8.20;;;0.90;99.90;;;;;;5030262;28;20025;-44
2021/01/29 12:49:48;;;;;;;14.70;7.72;;;0.90;99.90;;;;;;5030511;28;20029;-43
2021/01/29 12:52:35;;;;;;;11.90;7.25;;;0.90;99.90;;;;;;5030922;28;20548;-45
2021/01/29 12:55:19;;;;;;;13.38;7.15;;;1.00;99.90;;;;;;5030158;28;20033;-46
2021/01/29 12:57:59;;;;;;;13.40;8.20;;;0.90;99.90;;;;;;5030186;28;20021;-44
2021/01/29 13:00:28;;;;;;;11.02;6.50;;;0.90;99.90;;;;;;5027952;28;20025;-44
2021/01/29 13:03:06;;;;;;;10.75;6.85;;;0.90;99.90;;;;;;5029984;28;20033;-43
2021/01/29 13:05:52;;;;;;;13.75;7.78;;;0.80;99.90;;;;;;5029297;28;20277;-44
2021/01/29 13:08:55;;;;;;;11.48;7.15;;;0.70;99.90;;;;;;5030270;28;20430;-47
2021/01/29 13:11:36;;;;;;;9.15;5.65;;;0.70;99.90;;;;;;5022254;28;20099;-44
2021/01/29 13:14:36;;;;;;;8.55;5.22;;;0.80;99.90;;;;;;5014319;28;20128;-47
2021/01/29 13:17:37;;;;;;;10.30;5.57;;;0.70;99.90;;;;;;5029268;28;20033;-45
2021/01/29 13:20:06;;;;;;;8.50;4.90;;;0.70;99.90;;;;;;5029997;28;20483;-44
2021/01/29 13:22:40;;;;;;;7.00;4.85;;;0.70;99.90;;;;;;5029934;28;20486;-45
2021/01/29 13:25:27;;;;;;;7.28;4.55;;;0.60;99.90;;;;;;5018337;28;20022;-45
2021/01/29 13:28:14;;;;;;;6.80;4.53;;;0.60;99.90;;;;;;5017395;28;20060;-47
2021/01/29 13:30:42;;;;;;;8.48;5.15;;;0.60;99.90;;;;;;5020739;28;20042;-47
2021/01/29 13:33:32;;;;;;;6.25;4.35;;;0.60;99.90;;;;;;5019461;28;20479;-44
2021/01/29 13:36:19;;;;;;;7.30;3.95;;;0.60;99.90;;;;;;5036907;28;20507;-44
2021/01/29 13:38:44;;;;;;;5.13;3.75;;;0.60;99.90;;;;;;5043806;28;20537;-45
2021/01/29 13:41:13;;;;;;;4.57;3.35;;;0.60;99.90;;;;;;5021378;28;20037;-45
2021/01/29 13:43:41;;;;;;;9.18;4.47;;;0.50;99.90;;;;;;5022225;28;20120;-45
2021/01/29 13:46:27;;;;;;;4.88;3.45;;;0.60;99.90;;;;;;5021272;28;20036;-44
2021/01/29 13:49:24;;;;;;;6.97;4.43;;;0.60;99.90;;;;;;5020585;28;20029;-44
2021/01/29 13:51:52;;;;;;;6.72;4.55;;;0.60;99.90;;;;;;5028648;28;20430;-43
2021/01/29 13:54:38;;;;;;;4.13;3.33;;;0.60;99.90;;;;;;5028959;28;20124;-43
2021/01/29 13:57:40;;;;;;;6.47;4.10;;;0.60;99.90;;;;;;5018288;28;20034;-44
2021/01/29 14:00:16;;;;;;;5.55;3.92;;;0.60;99.90;;;;;;5043211;28;20021;-44
2021/01/29 14:02:49;;;;;;;4.70;3.88;;;0.60;99.90;;;;;;5015189;28;20026;-44
2021/01/29 14:05:24;;;;;;;7.57;4.30;;;0.60;99.90;;;;;;5023117;28;20037;-44
2021/01/29 14:07:53;;;;;;;6.22;4.43;;;0.50;99.90;;;;;;5027733;28;20034;-44